createdAt,value
2023-02-18T00:01:29.635Z,8.29
2023-02-18T00:03:58.338Z,8.24
2023-02-18T00:06:34.106Z,8.21
2023-02-18T00:09:01.589Z,8.19
2023-02-18T00:11:30.904Z,8.17
2023-02-18T00:14:00.808Z,8.15
2023-02-18T00:16:29.219Z,8.13
2023-02-18T00:18:58.594Z,8.44
2023-02-18T00:21:25.815Z,10.07
2023-02-18T00:23:52.645Z,9.92
2023-02-18T00:26:19.809Z,9.42
2023-02-18T00:28:51.178Z,9.11
2023-02-18T00:31:22.101Z,8.91
2023-02-18T00:33:49.133Z,8.79
2023-02-18T00:36:18.562Z,8.69
2023-02-18T00:38:47.702Z,8.60
2023-02-18T00:41:15.139Z,8.54
2023-02-18T00:43:42.463Z,8.49
2023-02-18T00:46:10.482Z,8.41
2023-02-18T00:48:37.309Z,8.35
2023-02-18T00:51:05.274Z,8.30
2023-02-18T00:53:32.513Z,8.23
2023-02-18T00:55:59.077Z,8.18
2023-02-18T00:58:25.752Z,8.12
2023-02-18T01:00:53.469Z,8.10
2023-02-18T01:03:21.739Z,8.05
2023-02-18T01:05:50.156Z,8.00
2023-02-18T01:08:18.192Z,7.96
2023-02-18T01:10:47.856Z,8.50
2023-02-18T01:13:15.890Z,10.30
2023-02-18T01:15:43.160Z,10.24
2023-02-18T01:18:10.688Z,9.61
2023-02-18T01:20:40.852Z,9.16
2023-02-18T01:23:07.576Z,8.86
2023-02-18T01:25:34.909Z,8.66
2023-02-18T01:28:01.800Z,8.50
2023-02-18T01:30:28.425Z,8.36
2023-02-18T01:32:56.775Z,8.24
2023-02-18T01:35:23.826Z,8.15
2023-02-18T01:37:50.609Z,8.06
2023-02-18T01:40:24.587Z,8.90
2023-02-18T01:42:51.164Z,10.44
2023-02-18T01:45:38.348Z,9.97
2023-02-18T01:48:08.016Z,9.30
2023-02-18T01:50:38.137Z,8.92
2023-02-18T01:53:04.712Z,8.65
2023-02-18T01:55:33.165Z,8.46
2023-02-18T01:57:59.966Z,8.27
2023-02-18T02:00:26.577Z,8.13
2023-02-18T02:02:53.508Z,8.02
2023-02-18T02:05:21.367Z,7.91
2023-02-18T02:07:51.675Z,8.55
2023-02-18T02:10:18.629Z,10.05
2023-02-18T02:12:54.913Z,9.61
2023-02-18T02:15:30.181Z,9.01
2023-02-18T02:18:33.896Z,8.60
2023-02-18T02:21:46.845Z,8.30
2023-02-18T02:24:40.957Z,8.08
2023-02-18T02:27:28.756Z,7.93
2023-02-18T02:30:26.575Z,7.92
2023-02-18T02:33:30.901Z,9.78
2023-02-18T02:36:14.299Z,9.96
2023-02-18T02:39:00.325Z,9.23
2023-02-18T02:42:08.189Z,8.75
2023-02-18T02:44:55.806Z,8.41
2023-02-18T02:47:38.061Z,8.19
2023-02-18T02:50:20.909Z,8.03
2023-02-18T02:52:51.958Z,7.88
2023-02-18T02:55:18.700Z,8.57
2023-02-18T02:57:50.353Z,10.11
2023-02-18T03:00:23.011Z,9.69
2023-02-18T03:03:11.953Z,9.04
2023-02-18T03:06:25.213Z,8.59
2023-02-18T03:09:30.048Z,8.26
2023-02-18T03:12:05.340Z,9.77
2023-02-18T03:15:07.050Z,9.88
2023-02-18T03:17:45.912Z,9.11
2023-02-18T03:20:25.464Z,8.66
2023-02-18T03:22:53.276Z,8.36
2023-02-18T03:25:21.209Z,9.42
2023-02-18T03:27:59.542Z,10.31
2023-02-18T03:30:32.757Z,9.63
2023-02-18T03:33:04.001Z,9.06
2023-02-18T03:35:31.169Z,8.65
2023-02-18T03:38:17.333Z,8.38
2023-02-18T03:40:43.937Z,8.16
2023-02-18T03:43:10.504Z,8.96
2023-02-18T03:45:37.038Z,10.47
2023-02-18T03:48:04.236Z,10.05
2023-02-18T03:50:30.709Z,9.35
2023-02-18T03:52:57.187Z,8.90
2023-02-18T03:55:23.732Z,8.59
2023-02-18T03:57:50.320Z,8.33
2023-02-18T04:00:17.492Z,8.64
2023-02-18T04:02:44.068Z,10.23
2023-02-18T04:05:12.499Z,10.05
2023-02-18T04:07:38.998Z,9.38
2023-02-18T04:10:07.756Z,8.91
2023-02-18T04:12:34.292Z,8.60
2023-02-18T04:15:00.837Z,8.33
2023-02-18T04:17:27.328Z,8.14
2023-02-18T04:19:53.868Z,9.12
2023-02-18T04:22:20.555Z,10.01
2023-02-18T04:24:47.147Z,9.40
2023-02-18T04:27:13.683Z,8.86
2023-02-18T04:29:40.410Z,8.49
2023-02-18T04:32:07.029Z,8.21
2023-02-18T04:34:33.594Z,8.21
2023-02-18T04:37:00.132Z,9.77
2023-02-18T04:39:26.661Z,10.32
2023-02-18T04:41:53.295Z,9.63
2023-02-18T04:44:19.910Z,9.02
2023-02-18T04:46:47.380Z,8.63
2023-02-18T04:49:13.904Z,8.36
2023-02-18T04:51:40.390Z,8.13
2023-02-18T04:54:06.945Z,8.63
2023-02-18T04:56:33.423Z,10.23
2023-02-18T04:58:59.995Z,9.95
2023-02-18T05:01:26.588Z,9.24
2023-02-18T05:03:53.323Z,8.75
2023-02-18T05:06:19.850Z,8.39
2023-02-18T05:08:46.352Z,8.14
2023-02-18T05:11:12.846Z,8.55
2023-02-18T05:13:39.405Z,10.20
2023-02-18T05:16:06.418Z,9.98
2023-02-18T05:18:33.319Z,9.27
2023-02-18T05:20:59.976Z,8.74
2023-02-18T05:23:26.815Z,8.39
2023-02-18T05:25:54.716Z,8.13
2023-02-18T05:28:22.015Z,8.30
2023-02-18T05:30:48.642Z,9.92
2023-02-18T05:33:15.200Z,9.83
2023-02-18T05:35:41.745Z,9.13
2023-02-18T05:38:09.300Z,8.60
2023-02-18T05:40:35.773Z,8.21
2023-02-18T05:43:02.338Z,7.96
2023-02-18T05:45:28.917Z,8.62
2023-02-18T05:47:55.434Z,10.04
2023-02-18T05:50:21.949Z,9.55
2023-02-18T05:52:48.466Z,8.88
2023-02-18T05:55:14.990Z,8.39
2023-02-18T05:57:41.547Z,8.05
2023-02-18T06:00:09.572Z,8.05
2023-02-18T06:02:36.911Z,9.66
2023-02-18T06:05:04.784Z,9.92
2023-02-18T06:07:31.328Z,9.16
2023-02-18T06:09:57.864Z,8.57
2023-02-18T06:12:24.620Z,8.14
2023-02-18T06:14:51.322Z,8.22
2023-02-18T06:17:18.185Z,9.75
2023-02-18T06:19:45.418Z,9.72
2023-02-18T06:22:12.806Z,9.02
2023-02-18T06:24:39.587Z,8.48
2023-02-18T06:27:06.803Z,8.10
2023-02-18T06:29:35.260Z,8.67
2023-02-18T06:32:02.026Z,10.11
2023-02-18T06:34:28.682Z,9.67
2023-02-18T06:36:55.551Z,9.02
2023-02-18T06:39:22.253Z,8.55
2023-02-18T06:41:48.724Z,8.22
2023-02-18T06:44:16.710Z,8.51
2023-02-18T06:46:44.156Z,10.21
2023-02-18T06:49:10.702Z,10.26
2023-02-18T06:51:37.268Z,9.52
2023-02-18T06:54:05.268Z,8.96
2023-02-18T06:56:32.133Z,8.57
2023-02-18T06:58:58.726Z,8.29
2023-02-18T07:01:25.318Z,8.44
2023-02-18T07:03:52.050Z,10.14
2023-02-18T07:06:18.630Z,10.39
2023-02-18T07:08:45.411Z,9.64
2023-02-18T07:11:12.006Z,9.07
2023-02-18T07:13:38.499Z,8.68
2023-02-18T07:16:05.551Z,8.40
2023-02-18T07:18:32.264Z,9.17
2023-02-18T07:20:58.806Z,10.69
2023-02-18T07:23:25.345Z,10.26
2023-02-18T07:25:52.021Z,9.57
2023-02-18T07:28:18.648Z,9.11
2023-02-18T07:30:45.177Z,8.81
2023-02-18T07:33:13.515Z,8.58
2023-02-18T07:35:40.125Z,8.85
2023-02-18T07:38:06.717Z,10.56
2023-02-18T07:40:33.348Z,10.78
2023-02-18T07:43:00.120Z,10.05
2023-02-18T07:45:26.782Z,9.51
2023-02-18T07:47:53.354Z,9.15
2023-02-18T07:50:20.081Z,8.88
2023-02-18T07:52:46.616Z,8.68
2023-02-18T07:55:13.229Z,8.52
2023-02-18T07:57:56.645Z,8.52
2023-02-18T08:00:24.277Z,10.22
2023-02-18T08:02:51.001Z,10.67
2023-02-18T08:05:17.807Z,10.01
2023-02-18T08:07:44.497Z,9.51
2023-02-18T08:10:11.176Z,9.18
2023-02-18T08:12:38.038Z,8.94
2023-02-18T08:15:05.275Z,8.78
2023-02-18T08:17:32.125Z,8.64
2023-02-18T08:19:58.918Z,8.54
2023-02-18T08:22:26.607Z,8.46
2023-02-18T08:24:56.493Z,8.38
2023-02-18T08:27:24.068Z,8.31
2023-02-18T08:29:51.467Z,8.27
2023-02-18T08:32:18.331Z,8.75
2023-02-18T08:34:48.081Z,10.45
2023-02-18T08:37:14.888Z,10.37
2023-02-18T08:39:41.591Z,9.82
2023-02-18T08:42:08.181Z,9.47
2023-02-18T08:44:34.701Z,9.25
2023-02-18T08:47:01.340Z,9.11
2023-02-18T08:49:28.033Z,9.02
2023-02-18T08:51:55.518Z,8.94
2023-02-18T08:54:22.417Z,8.91
2023-02-18T08:56:48.935Z,8.91
2023-02-18T08:59:15.436Z,8.94
2023-02-18T09:01:42.069Z,8.98
2023-02-18T09:04:08.735Z,9.03
2023-02-18T09:06:38.195Z,9.08
2023-02-18T09:09:05.236Z,9.11
2023-02-18T09:11:32.077Z,9.19
2023-02-18T09:13:58.744Z,9.30
2023-02-18T09:16:27.542Z,9.42
2023-02-18T09:18:54.043Z,9.53
2023-02-18T09:21:21.960Z,9.65
2023-02-18T09:23:49.507Z,9.79
2023-02-18T09:26:22.254Z,9.92
2023-02-18T09:28:49.473Z,10.09
2023-02-18T09:31:19.842Z,10.33
2023-02-18T09:33:53.546Z,10.61
2023-02-18T09:36:20.514Z,10.86
2023-02-18T09:38:47.753Z,11.05
2023-02-18T09:41:30.662Z,11.27
2023-02-18T09:44:00.232Z,11.46
2023-02-18T09:46:39.400Z,11.65
2023-02-18T09:49:36.782Z,11.81
2023-02-18T09:52:33.983Z,11.95
2023-02-18T09:55:33.442Z,12.12
2023-02-18T09:58:13.399Z,12.25
2023-02-18T10:00:50.243Z,12.42
2023-02-18T10:03:20.438Z,12.54
2023-02-18T10:06:03.924Z,12.58
2023-02-18T10:08:42.969Z,12.62
2023-02-18T10:11:23.030Z,12.66
2023-02-18T10:13:50.315Z,12.66
2023-02-18T10:16:18.782Z,12.60
2023-02-18T10:18:49.249Z,12.55
2023-02-18T10:21:27.015Z,12.54
2023-02-18T10:24:10.043Z,12.49
2023-02-18T10:26:38.163Z,12.45
2023-02-18T10:29:14.457Z,12.45
2023-02-18T10:31:46.211Z,12.61
2023-02-18T10:34:30.002Z,12.77
2023-02-18T10:37:34.742Z,12.93
2023-02-18T10:40:40.410Z,13.07
2023-02-18T10:43:18.276Z,13.11
2023-02-18T10:46:05.117Z,13.13
2023-02-18T10:49:14.770Z,13.15
2023-02-18T10:51:49.852Z,13.09
2023-02-18T10:54:16.393Z,13.02
2023-02-18T10:56:51.667Z,12.89
2023-02-18T10:59:31.418Z,12.75
2023-02-18T11:02:06.206Z,12.58
2023-02-18T11:04:42.125Z,12.43
2023-02-18T11:07:15.861Z,12.26
2023-02-18T11:09:52.216Z,12.10
2023-02-18T11:12:24.734Z,11.94
2023-02-18T11:15:09.546Z,11.79
2023-02-18T11:17:39.264Z,11.60
2023-02-18T11:20:33.929Z,11.44
2023-02-18T11:23:06.673Z,11.24
2023-02-18T11:25:34.482Z,11.07
2023-02-18T11:28:21.493Z,10.94
2023-02-18T11:30:53.858Z,10.76
2023-02-18T11:33:32.714Z,10.60
2023-02-18T11:36:19.578Z,10.43
2023-02-18T11:38:57.862Z,10.29
2023-02-18T11:41:48.312Z,10.14
2023-02-18T11:44:47.897Z,10.01
2023-02-18T11:47:14.501Z,9.89
2023-02-18T11:49:43.808Z,9.78
2023-02-18T11:52:32.862Z,9.67
2023-02-18T11:55:12.015Z,9.66
2023-02-18T11:57:44.177Z,11.26
2023-02-18T12:00:22.190Z,12.21
2023-02-18T12:02:51.891Z,11.46
2023-02-18T12:05:28.136Z,10.86
2023-02-18T12:08:11.202Z,11.45
2023-02-18T12:10:44.188Z,13.31
2023-02-18T12:13:41.060Z,13.17
2023-02-18T12:16:24.320Z,12.01
2023-02-18T12:19:23.608Z,11.87
2023-02-18T12:22:02.695Z,13.66
2023-02-18T12:24:51.343Z,13.32
2023-02-18T12:27:42.632Z,12.19
2023-02-18T12:31:07.142Z,12.09
2023-02-18T12:34:04.604Z,14.04
2023-02-18T12:36:34.126Z,13.19
2023-02-18T12:39:29.484Z,12.16
2023-02-18T12:42:29.643Z,11.90
2023-02-18T12:45:21.188Z,13.58
2023-02-18T12:48:01.036Z,13.07
2023-02-18T12:50:45.717Z,11.96
2023-02-18T12:53:32.377Z,12.43
2023-02-18T12:56:23.666Z,13.93
2023-02-18T12:59:46.820Z,13.23
2023-02-18T13:02:44.137Z,12.00
2023-02-18T13:05:32.802Z,13.17
2023-02-18T13:08:35.476Z,14.26
2023-02-18T13:11:46.231Z,13.00
2023-02-18T13:14:24.146Z,12.16
2023-02-18T13:16:55.549Z,13.50
2023-02-18T13:19:34.378Z,14.39
2023-02-18T13:22:06.707Z,13.31
2023-02-18T13:24:43.394Z,12.30
2023-02-18T13:27:28.005Z,12.45
2023-02-18T13:30:22.458Z,14.14
2023-02-18T13:33:27.477Z,14.26
2023-02-18T13:36:31.828Z,12.84
2023-02-18T13:39:19.240Z,12.63
2023-02-18T13:41:48.591Z,14.28
2023-02-18T13:44:21.605Z,14.32
2023-02-18T13:46:54.735Z,13.14
2023-02-18T13:49:42.833Z,12.26
2023-02-18T13:52:18.859Z,13.09
2023-02-18T13:54:46.155Z,14.66
2023-02-18T13:57:21.985Z,14.59
2023-02-18T14:00:12.434Z,13.37
2023-02-18T14:02:55.768Z,12.42
2023-02-18T14:05:24.309Z,13.45
2023-02-18T14:08:33.945Z,14.81
2023-02-18T14:11:13.166Z,14.06
2023-02-18T14:14:25.484Z,12.89
2023-02-18T14:17:29.372Z,12.60
2023-02-18T14:20:08.393Z,14.45
2023-02-18T14:22:52.092Z,14.80
2023-02-18T14:25:35.839Z,13.52
2023-02-18T14:28:44.456Z,12.48
2023-02-18T14:31:35.565Z,13.05
2023-02-18T14:34:22.376Z,14.68
2023-02-18T14:37:00.566Z,14.19
2023-02-18T14:39:52.291Z,12.98
2023-02-18T14:42:37.920Z,12.11
2023-02-18T14:45:16.921Z,12.98
2023-02-18T14:48:16.517Z,14.50
2023-02-18T14:50:45.999Z,13.97
2023-02-18T14:53:17.953Z,12.86
2023-02-18T14:55:59.571Z,12.10
2023-02-18T14:58:48.542Z,13.00
2023-02-18T15:01:31.375Z,14.54
2023-02-18T15:03:58.537Z,13.83
2023-02-18T15:06:29.752Z,12.74
2023-02-18T15:08:58.274Z,11.94
2023-02-18T15:11:47.586Z,11.86
2023-02-18T15:14:27.275Z,13.56
2023-02-18T15:16:54.376Z,14.25
2023-02-18T15:19:25.832Z,13.17
2023-02-18T15:21:56.031Z,12.18
2023-02-18T15:24:35.351Z,11.76
2023-02-18T15:27:24.952Z,13.15
2023-02-18T15:29:57.032Z,14.03
2023-02-18T15:32:27.219Z,12.97
2023-02-18T15:35:01.040Z,12.01
2023-02-18T15:37:29.012Z,11.48
2023-02-18T15:39:56.576Z,12.60
2023-02-18T15:42:35.830Z,13.98
2023-02-18T15:45:23.844Z,13.55
2023-02-18T15:47:56.653Z,12.25
2023-02-18T15:50:28.443Z,11.39
2023-02-18T15:52:59.277Z,11.66
2023-02-18T15:55:39.065Z,13.21
2023-02-18T15:58:14.514Z,13.86
2023-02-18T16:00:49.077Z,12.69
2023-02-18T16:03:26.587Z,11.63
2023-02-18T16:06:17.008Z,11.02
2023-02-18T16:09:07.381Z,12.33
2023-02-18T16:11:38.545Z,13.35
2023-02-18T16:14:08.105Z,12.33
2023-02-18T16:16:38.833Z,11.33
2023-02-18T16:19:05.596Z,11.09
2023-02-18T16:21:39.341Z,12.54
2023-02-18T16:24:27.745Z,13.41
2023-02-18T16:26:57.152Z,12.26
2023-02-18T16:29:40.234Z,11.26
2023-02-18T16:32:07.221Z,11.10
2023-02-18T16:34:37.810Z,12.56
2023-02-18T16:37:23.411Z,13.32
2023-02-18T16:39:54.196Z,12.13
2023-02-18T16:42:21.345Z,11.12
2023-02-18T16:44:49.398Z,10.91
2023-02-18T16:47:17.508Z,12.32
2023-02-18T16:49:46.040Z,13.49
2023-02-18T16:52:15.568Z,12.84
2023-02-18T16:54:43.105Z,11.69
2023-02-18T16:57:12.821Z,10.82
2023-02-18T16:59:39.429Z,10.67
2023-02-18T17:02:16.787Z,12.15
2023-02-18T17:04:43.350Z,13.04
2023-02-18T17:07:10.810Z,12.03
2023-02-18T17:09:37.839Z,11.02
2023-02-18T17:12:04.591Z,10.68
2023-02-18T17:14:31.505Z,12.00
2023-02-18T17:16:58.485Z,12.93
2023-02-18T17:19:25.060Z,12.05
2023-02-18T17:21:51.760Z,11.05
2023-02-18T17:24:18.824Z,10.36
2023-02-18T17:26:45.544Z,11.05
2023-02-18T17:29:13.190Z,12.58
2023-02-18T17:31:43.853Z,13.03
2023-02-18T17:34:21.197Z,11.82
2023-02-18T17:36:47.767Z,10.79
2023-02-18T17:39:16.980Z,10.46
2023-02-18T17:41:44.003Z,11.83
2023-02-18T17:44:13.685Z,12.84
2023-02-18T17:46:40.334Z,11.88
2023-02-18T17:49:06.933Z,10.84
2023-02-18T17:51:36.156Z,10.46
2023-02-18T17:54:05.771Z,11.77
2023-02-18T17:56:34.765Z,12.69
2023-02-18T17:59:01.305Z,11.73
2023-02-18T18:01:27.951Z,10.63
2023-02-18T18:03:54.705Z,10.16
2023-02-18T18:06:21.457Z,11.31
2023-02-18T18:08:48.241Z,12.21
2023-02-18T18:11:21.709Z,11.38
2023-02-18T18:13:48.668Z,10.41
2023-02-18T18:16:17.032Z,10.24
2023-02-18T18:18:44.150Z,11.75
2023-02-18T18:21:29.318Z,12.65
2023-02-18T18:23:55.956Z,11.56
2023-02-18T18:26:22.833Z,10.55
2023-02-18T18:28:49.446Z,10.26
2023-02-18T18:31:18.594Z,11.79
2023-02-18T18:33:52.294Z,12.59
2023-02-18T18:36:19.735Z,11.53
2023-02-18T18:38:46.520Z,10.56
2023-02-18T18:41:16.146Z,10.26
2023-02-18T18:43:42.762Z,11.89
2023-02-18T18:46:09.556Z,12.75
2023-02-18T18:48:36.240Z,11.75
2023-02-18T18:51:03.090Z,10.72
2023-02-18T18:53:33.400Z,9.96
2023-02-18T18:56:04.221Z,10.44
2023-02-18T18:58:31.180Z,12.04
2023-02-18T19:01:03.793Z,12.65
2023-02-18T19:03:33.187Z,11.55
2023-02-18T19:05:59.803Z,10.53
2023-02-18T19:08:26.468Z,10.34
2023-02-18T19:10:55.997Z,11.82
2023-02-18T19:13:28.759Z,12.65
2023-02-18T19:16:01.262Z,11.59
2023-02-18T19:18:28.402Z,10.55
2023-02-18T19:20:55.702Z,10.43
2023-02-18T19:23:22.299Z,11.92
2023-02-18T19:25:48.883Z,12.65
2023-02-18T19:28:15.694Z,11.63
2023-02-18T19:30:42.593Z,10.60
2023-02-18T19:33:13.025Z,10.24
2023-02-18T19:35:41.212Z,11.65
2023-02-18T19:38:09.782Z,12.51
2023-02-18T19:40:36.790Z,11.54
2023-02-18T19:43:04.448Z,10.55
2023-02-18T19:45:33.207Z,10.43
2023-02-18T19:48:01.220Z,11.95
2023-02-18T19:50:30.786Z,12.30
2023-02-18T19:52:59.314Z,11.22
2023-02-18T19:55:26.123Z,10.33
2023-02-18T19:57:52.946Z,10.75
2023-02-18T20:00:24.363Z,12.31
2023-02-18T20:02:51.106Z,12.48
2023-02-18T20:05:18.745Z,11.34
2023-02-18T20:07:46.190Z,10.42
2023-02-18T20:10:19.471Z,10.18
2023-02-18T20:12:51.607Z,11.69
2023-02-18T20:15:18.617Z,12.56
2023-02-18T20:17:45.265Z,11.55
2023-02-18T20:20:11.897Z,10.54
2023-02-18T20:22:38.525Z,10.52
2023-02-18T20:25:05.605Z,12.03
2023-02-18T20:27:33.424Z,12.51
2023-02-18T20:30:00.092Z,11.42
2023-02-18T20:32:26.779Z,10.46
2023-02-18T20:34:53.290Z,10.51
2023-02-18T20:37:19.946Z,12.00
2023-02-18T20:39:46.627Z,12.62
2023-02-18T20:42:16.619Z,11.50
2023-02-18T20:44:44.881Z,10.49
2023-02-18T20:47:12.877Z,10.28
2023-02-18T20:49:39.991Z,11.75
2023-02-18T20:52:08.065Z,12.03
2023-02-18T20:54:34.860Z,10.91
2023-02-18T20:57:01.882Z,9.99
2023-02-18T20:59:32.722Z,10.17
2023-02-18T21:02:00.354Z,11.76
2023-02-18T21:04:27.339Z,11.67
2023-02-18T21:06:54.697Z,10.51
2023-02-18T21:09:21.425Z,9.68
2023-02-18T21:11:48.415Z,10.36
2023-02-18T21:14:15.116Z,11.80
2023-02-18T21:16:41.946Z,11.36
2023-02-18T21:19:13.464Z,10.25
2023-02-18T21:21:40.811Z,9.51
2023-02-18T21:24:07.596Z,10.46
2023-02-18T21:26:34.603Z,11.71
2023-02-18T21:29:04.988Z,11.04
2023-02-18T21:31:39.196Z,9.95
2023-02-18T21:34:10.794Z,9.62
2023-02-18T21:36:37.934Z,11.11
2023-02-18T21:39:08.300Z,11.78
2023-02-18T21:41:39.911Z,10.68
2023-02-18T21:44:08.303Z,9.64
2023-02-18T21:46:35.945Z,9.94
2023-02-18T21:49:08.709Z,11.52
2023-02-18T21:52:01.299Z,11.69
2023-02-18T21:54:45.862Z,10.34
2023-02-18T21:57:15.657Z,9.76
2023-02-18T21:59:44.553Z,11.11
2023-02-18T22:02:20.900Z,11.97
2023-02-18T22:04:48.588Z,10.89
2023-02-18T22:07:16.506Z,9.86
2023-02-18T22:09:46.656Z,10.08
2023-02-18T22:12:15.442Z,11.64
2023-02-18T22:14:42.933Z,11.74
2023-02-18T22:17:10.049Z,10.52
2023-02-18T22:19:36.772Z,9.80
2023-02-18T22:22:03.432Z,10.90
2023-02-18T22:24:31.359Z,12.01
2023-02-18T22:27:00.771Z,11.12
2023-02-18T22:29:29.327Z,10.07
2023-02-18T22:31:56.100Z,10.17
2023-02-18T22:34:23.504Z,11.68
2023-02-18T22:36:50.030Z,12.16
2023-02-18T22:39:17.226Z,11.01
2023-02-18T22:41:43.914Z,10.08
2023-02-18T22:44:14.166Z,10.66
2023-02-18T22:46:41.128Z,12.09
2023-02-18T22:49:08.426Z,11.59
2023-02-18T22:51:39.192Z,10.47
2023-02-18T22:54:10.782Z,10.06
2023-02-18T22:56:37.445Z,11.45
2023-02-18T22:59:05.212Z,12.31
2023-02-18T23:01:38.056Z,11.31
2023-02-18T23:04:13.508Z,10.28
2023-02-18T23:06:44.067Z,10.09
2023-02-18T23:09:20.529Z,11.61
2023-02-18T23:11:56.825Z,12.36
2023-02-18T23:14:24.930Z,11.22
2023-02-18T23:17:13.684Z,10.25
2023-02-18T23:19:52.101Z,10.41
2023-02-18T23:22:27.616Z,12.17
2023-02-18T23:24:54.150Z,11.97
2023-02-18T23:27:21.703Z,10.83
2023-02-18T23:29:48.920Z,9.98
2023-02-18T23:32:15.806Z,10.53
2023-02-18T23:34:42.472Z,12.20
2023-02-18T23:37:09.551Z,12.36
2023-02-18T23:39:36.344Z,11.19
2023-02-18T23:42:03.067Z,10.26
2023-02-18T23:44:29.710Z,10.88
2023-02-18T23:46:56.295Z,12.38
2023-02-18T23:49:25.096Z,12.03
2023-02-18T23:51:54.671Z,10.88
2023-02-18T23:54:22.371Z,10.05
2023-02-18T23:56:48.980Z,10.56
2023-02-18T23:59:15.644Z,12.19
